createdAt,value
2023-11-29T00:01:18.739Z,97235.97
2023-11-29T00:02:50.308Z,97240.09
2023-11-29T00:04:21.987Z,97240.78
2023-11-29T00:05:53.699Z,97249.19
2023-11-29T00:07:25.327Z,97237.28
2023-11-29T00:08:58.595Z,97233.31
2023-11-29T00:10:30.191Z,97234.22
2023-11-29T00:12:01.848Z,97235.72
2023-11-29T00:13:33.455Z,97232.69
2023-11-29T00:15:06.075Z,97232.63
2023-11-29T00:16:37.672Z,97236.69
2023-11-29T00:18:09.751Z,97226.94
2023-11-29T00:19:44.822Z,97234.81
2023-11-29T00:21:16.964Z,97232.03
2023-11-29T00:22:48.646Z,97232.69
2023-11-29T00:24:20.219Z,97230.22
2023-11-29T00:25:51.801Z,97236.09
2023-11-29T00:27:23.386Z,97228.03
2023-11-29T00:28:55.001Z,97231.16
2023-11-29T00:30:29.958Z,97225.91
2023-11-29T00:32:02.398Z,97228.59
2023-11-29T00:33:33.976Z,97221.81
2023-11-29T00:35:06.165Z,97224.16
2023-11-29T00:36:37.812Z,97230.13
2023-11-29T00:38:09.513Z,97225.19
2023-11-29T00:39:41.284Z,97229.53
2023-11-29T00:41:12.880Z,97226.28
2023-11-29T00:42:44.625Z,97219.97
2023-11-29T00:44:16.963Z,97221.25
2023-11-29T00:45:48.658Z,97224.97
2023-11-29T00:47:20.769Z,97219.22
2023-11-29T00:48:52.790Z,97218.91
2023-11-29T00:50:24.350Z,97220.88
2023-11-29T00:51:55.972Z,97222.72
2023-11-29T00:53:27.826Z,97212.88
2023-11-29T00:54:59.538Z,97224.59
2023-11-29T00:56:31.764Z,97215.94
2023-11-29T00:58:04.146Z,97214.28
2023-11-29T00:59:35.919Z,97211.22
2023-11-29T01:01:08.483Z,97211.94
2023-11-29T01:02:40.458Z,97219.28
2023-11-29T01:04:12.189Z,97215.34
2023-11-29T01:05:43.908Z,97206.28
2023-11-29T01:07:16.136Z,97212.06
2023-11-29T01:08:47.971Z,97217.31
2023-11-29T01:10:22.601Z,97213.06
2023-11-29T01:11:54.398Z,97216.38
2023-11-29T01:13:29.040Z,97207.81
2023-11-29T01:15:00.696Z,97217.53
2023-11-29T01:16:32.544Z,97214.63
2023-11-29T01:18:04.349Z,97217.97
2023-11-29T01:19:36.895Z,97219.59
2023-11-29T01:21:22.332Z,97215.03
2023-11-29T01:23:00.442Z,97222.50
2023-11-29T01:24:32.144Z,97223.59
2023-11-29T01:26:03.749Z,97220.19
2023-11-29T01:27:35.378Z,97219.94
2023-11-29T01:29:08.265Z,97216.31
2023-11-29T01:30:41.952Z,97215.47
2023-11-29T01:32:13.559Z,97212.91
2023-11-29T01:33:45.184Z,97211.94
2023-11-29T01:35:17.080Z,97214.44
2023-11-29T01:36:49.454Z,97211.41
2023-11-29T01:38:21.244Z,97204.03
2023-11-29T01:39:52.879Z,97202.97
2023-11-29T01:41:24.487Z,97188.91
2023-11-29T01:42:56.066Z,97195.69
2023-11-29T01:44:27.718Z,97199.09
2023-11-29T01:45:59.698Z,97193.00
2023-11-29T01:47:35.582Z,97185.63
2023-11-29T01:49:08.184Z,97187.59
2023-11-29T01:50:40.182Z,97193.03
2023-11-29T01:52:12.640Z,97183.75
2023-11-29T01:53:44.449Z,97188.72
2023-11-29T01:55:19.555Z,97190.22
2023-11-29T01:56:53.466Z,97191.53
2023-11-29T01:58:26.880Z,97195.50
2023-11-29T01:59:58.719Z,97191.56
2023-11-29T02:01:30.353Z,97191.06
2023-11-29T02:03:02.246Z,97192.84
2023-11-29T02:04:34.191Z,97191.97
2023-11-29T02:06:06.939Z,97198.69
2023-11-29T02:07:39.450Z,97191.31
2023-11-29T02:09:11.097Z,97189.91
2023-11-29T02:10:42.823Z,97192.22
2023-11-29T02:12:14.937Z,97191.19
2023-11-29T02:13:46.556Z,97190.38
2023-11-29T02:15:18.109Z,97191.19
2023-11-29T02:16:49.807Z,97188.03
2023-11-29T02:18:21.482Z,97188.38
2023-11-29T02:19:53.134Z,97191.63
2023-11-29T02:21:25.823Z,97189.44
2023-11-29T02:23:04.229Z,97186.25
2023-11-29T02:24:43.160Z,97189.66
2023-11-29T02:26:14.749Z,97183.00
2023-11-29T02:27:46.343Z,97180.44
2023-11-29T02:29:20.663Z,97180.44
2023-11-29T02:30:52.813Z,97179.84
2023-11-29T02:32:24.991Z,97188.16
2023-11-29T02:33:56.546Z,97181.38
2023-11-29T02:35:28.168Z,97183.84
2023-11-29T02:36:59.785Z,97185.84
2023-11-29T02:38:31.674Z,97187.81
2023-11-29T02:40:04.633Z,97188.50
2023-11-29T02:41:39.112Z,97193.75
2023-11-29T02:43:10.752Z,97192.38
2023-11-29T02:44:42.557Z,97188.59
2023-11-29T02:46:14.213Z,97196.47
2023-11-29T02:47:46.042Z,97192.16
2023-11-29T02:49:17.774Z,97191.69
2023-11-29T02:50:49.499Z,97189.22
2023-11-29T02:52:21.155Z,97189.22
2023-11-29T02:53:52.785Z,97185.59
2023-11-29T02:55:24.459Z,97187.94
2023-11-29T02:56:56.107Z,97183.25
2023-11-29T02:58:27.830Z,97185.69
2023-11-29T02:59:59.439Z,97188.66
2023-11-29T03:01:31.062Z,97188.66
2023-11-29T03:03:02.698Z,97186.66
2023-11-29T03:04:34.533Z,97189.00
2023-11-29T03:06:06.799Z,97190.63
2023-11-29T03:07:38.385Z,97191.88
2023-11-29T03:09:10.102Z,97190.03
2023-11-29T03:10:42.082Z,97191.22
2023-11-29T03:12:13.739Z,97186.88
2023-11-29T03:13:45.313Z,97188.53
2023-11-29T03:15:16.989Z,97182.91
2023-11-29T03:16:48.815Z,97180.34
2023-11-29T03:18:20.573Z,97181.59
2023-11-29T03:19:52.157Z,97177.28
2023-11-29T03:21:23.733Z,97179.38
2023-11-29T03:22:55.298Z,97170.16
2023-11-29T03:24:26.845Z,97164.31
2023-11-29T03:26:06.383Z,97165.25
2023-11-29T03:27:37.977Z,97167.00
2023-11-29T03:29:09.549Z,97165.94
2023-11-29T03:30:41.144Z,97170.28
2023-11-29T03:32:12.811Z,97176.94
2023-11-29T03:33:44.377Z,97166.31
2023-11-29T03:35:16.137Z,97172.28
2023-11-29T03:36:47.756Z,97171.56
2023-11-29T03:38:19.908Z,97169.31
2023-11-29T03:39:51.491Z,97166.19
2023-11-29T03:41:23.031Z,97165.47
2023-11-29T03:42:55.913Z,97173.66
2023-11-29T03:44:27.540Z,97164.56
2023-11-29T03:45:59.150Z,97166.66
2023-11-29T03:47:30.828Z,97169.34
2023-11-29T03:49:02.417Z,97176.69
2023-11-29T03:50:34.015Z,97168.16
2023-11-29T03:52:05.664Z,97164.91
2023-11-29T03:53:37.249Z,97165.47
2023-11-29T03:55:09.039Z,97161.63
2023-11-29T03:56:40.757Z,97165.13
2023-11-29T03:58:12.628Z,97166.28
2023-11-29T03:59:44.370Z,97166.25
2023-11-29T04:01:15.921Z,97160.31
2023-11-29T04:02:47.553Z,97164.63
2023-11-29T04:04:19.313Z,97159.25
2023-11-29T04:05:52.440Z,97156.25
2023-11-29T04:07:24.131Z,97156.59
2023-11-29T04:08:56.344Z,97152.03
2023-11-29T04:10:30.533Z,97155.41
2023-11-29T04:12:02.100Z,97160.81
2023-11-29T04:13:33.699Z,97157.41
2023-11-29T04:15:05.987Z,97156.00
2023-11-29T04:16:37.584Z,97151.56
2023-11-29T04:18:09.285Z,97153.78
2023-11-29T04:19:40.901Z,97157.75
2023-11-29T04:21:32.064Z,97155.06
2023-11-29T04:23:03.699Z,97154.72
2023-11-29T04:24:35.336Z,97149.94
2023-11-29T04:26:08.510Z,97145.13
2023-11-29T04:27:40.082Z,97146.31
2023-11-29T04:29:12.677Z,97149.00
2023-11-29T04:30:44.492Z,97146.41
2023-11-29T04:32:16.155Z,97144.44
2023-11-29T04:33:47.742Z,97137.88
2023-11-29T04:35:19.332Z,97140.31
2023-11-29T04:36:51.631Z,97137.41
2023-11-29T04:38:23.502Z,97140.81
2023-11-29T04:39:55.107Z,97138.56
2023-11-29T04:41:27.069Z,97136.81
2023-11-29T04:42:58.712Z,97141.16
2023-11-29T04:44:30.263Z,97145.13
2023-11-29T04:46:01.816Z,97147.78
2023-11-29T04:47:33.538Z,97139.50
2023-11-29T04:49:06.375Z,97135.06
2023-11-29T04:50:37.947Z,97130.63
2023-11-29T04:52:09.608Z,97131.31
2023-11-29T04:53:41.928Z,97133.44
2023-11-29T04:55:13.568Z,97125.25
2023-11-29T04:56:45.939Z,97126.06
2023-11-29T04:58:17.531Z,97124.06
2023-11-29T04:59:49.119Z,97120.81
2023-11-29T05:01:21.035Z,97127.94
2023-11-29T05:02:52.986Z,97118.22
2023-11-29T05:04:25.953Z,97116.59
2023-11-29T05:05:57.670Z,97118.25
2023-11-29T05:07:29.255Z,97113.94
2023-11-29T05:09:00.816Z,97116.72
2023-11-29T05:10:32.373Z,97116.38
2023-11-29T05:12:04.744Z,97115.19
2023-11-29T05:13:36.505Z,97110.75
2023-11-29T05:15:08.720Z,97112.03
2023-11-29T05:16:40.418Z,97115.09
2023-11-29T05:18:12.229Z,97116.94
2023-11-29T05:19:43.910Z,97110.41
2023-11-29T05:21:15.485Z,97113.69
2023-11-29T05:22:47.073Z,97118.72
2023-11-29T05:24:18.651Z,97116.84
2023-11-29T05:25:50.156Z,97121.84
2023-11-29T05:27:21.714Z,97122.66
2023-11-29T05:28:53.268Z,97122.31
2023-11-29T05:30:25.685Z,97123.41
2023-11-29T05:31:57.250Z,97126.53
2023-11-29T05:33:30.877Z,97127.22
2023-11-29T05:35:02.945Z,97128.41
2023-11-29T05:36:34.663Z,97121.75
2023-11-29T05:38:06.266Z,97130.38
2023-11-29T05:39:37.840Z,97123.59
2023-11-29T05:41:09.480Z,97121.03
2023-11-29T05:42:41.461Z,97124.63
2023-11-29T05:44:14.439Z,97119.81
2023-11-29T05:45:46.047Z,97117.56
2023-11-29T05:47:17.742Z,97124.25
2023-11-29T05:48:49.397Z,97124.72
2023-11-29T05:50:21.056Z,97126.38
2023-11-29T05:51:52.653Z,97121.34
2023-11-29T05:53:24.631Z,97125.66
2023-11-29T05:54:57.559Z,97123.81
2023-11-29T05:56:29.433Z,97125.44
2023-11-29T05:58:01.853Z,97125.63
2023-11-29T05:59:33.587Z,97116.97
2023-11-29T06:01:08.450Z,97126.22
2023-11-29T06:02:40.826Z,97123.81
2023-11-29T06:04:12.497Z,97132.94
2023-11-29T06:05:44.181Z,97130.00
2023-11-29T06:07:16.290Z,97126.94
2023-11-29T06:08:47.886Z,97124.03
2023-11-29T06:10:19.614Z,97135.47
2023-11-29T06:11:51.190Z,97131.94
2023-11-29T06:13:23.805Z,97133.94
2023-11-29T06:14:55.472Z,97136.63
2023-11-29T06:16:27.132Z,97132.91
2023-11-29T06:17:58.847Z,97122.81
2023-11-29T06:19:30.490Z,97130.56
2023-11-29T06:21:05.435Z,97134.06
2023-11-29T06:22:36.998Z,97137.13
2023-11-29T06:24:09.205Z,97120.28
2023-11-29T06:25:40.757Z,97123.38
2023-11-29T06:27:12.757Z,97125.16
2023-11-29T06:28:44.336Z,97126.66
2023-11-29T06:30:17.772Z,97117.44
2023-11-29T06:31:49.496Z,97118.25
2023-11-29T06:33:21.451Z,97121.50
2023-11-29T06:34:53.669Z,97117.56
2023-11-29T06:36:25.828Z,97122.50
2023-11-29T06:38:02.620Z,97119.88
2023-11-29T06:39:37.674Z,97111.25
2023-11-29T06:41:09.523Z,97111.16
2023-11-29T06:42:41.330Z,97113.94
2023-11-29T06:44:13.205Z,97123.75
2023-11-29T06:45:44.805Z,97118.25
2023-11-29T06:47:18.484Z,97127.47
2023-11-29T06:48:51.504Z,97136.25
2023-11-29T06:50:23.123Z,97131.31
2023-11-29T06:51:54.705Z,97127.16
2023-11-29T06:53:26.309Z,97130.34
2023-11-29T06:54:58.244Z,97131.09
2023-11-29T06:56:29.796Z,97125.16
2023-11-29T06:58:08.052Z,97123.28
2023-11-29T06:59:43.294Z,97128.91
2023-11-29T07:01:15.028Z,97127.84
2023-11-29T07:02:46.798Z,97127.84
2023-11-29T07:04:18.497Z,97128.41
2023-11-29T07:05:50.206Z,97130.38
2023-11-29T07:07:21.831Z,97128.41
2023-11-29T07:08:53.468Z,97130.88
2023-11-29T07:10:26.868Z,97128.31
2023-11-29T07:11:58.565Z,97130.28
2023-11-29T07:13:30.197Z,97124.69
2023-11-29T07:15:01.969Z,97123.38
2023-11-29T07:16:33.689Z,97128.94
2023-11-29T07:18:06.172Z,97128.19
2023-11-29T07:19:38.108Z,97132.19
2023-11-29T07:21:09.971Z,97131.81
2023-11-29T07:22:41.540Z,97134.78
2023-11-29T07:24:13.141Z,97127.44
2023-11-29T07:25:44.701Z,97128.94
2023-11-29T07:27:16.464Z,97121.78
2023-11-29T07:28:48.826Z,97123.31
2023-11-29T07:30:20.588Z,97123.28
2023-11-29T07:31:55.382Z,97121.72
2023-11-29T07:33:27.161Z,97127.22
2023-11-29T07:34:58.928Z,97115.34
2023-11-29T07:36:32.650Z,97122.66
2023-11-29T07:38:04.938Z,97126.38
2023-11-29T07:39:36.558Z,97135.63
2023-11-29T07:41:08.189Z,97140.09
2023-11-29T07:42:39.822Z,97141.66
2023-11-29T07:44:11.624Z,97138.16
2023-11-29T07:45:43.247Z,97148.78
2023-11-29T07:47:14.908Z,97143.53
2023-11-29T07:48:46.578Z,97147.97
2023-11-29T07:50:18.318Z,97162.00
2023-11-29T07:51:49.982Z,97153.38
2023-11-29T07:53:21.706Z,97159.91
2023-11-29T07:54:53.342Z,97149.94
2023-11-29T07:56:24.947Z,97152.25
2023-11-29T07:57:56.557Z,97150.75
2023-11-29T07:59:28.172Z,97157.78
2023-11-29T08:00:59.864Z,97147.09
2023-11-29T08:02:31.478Z,97152.53
2023-11-29T08:04:03.222Z,97154.00
2023-11-29T08:05:35.739Z,97159.06
2023-11-29T08:07:07.363Z,97158.81
2023-11-29T08:08:38.975Z,97154.13
2023-11-29T08:10:10.728Z,97157.41
2023-11-29T08:11:45.632Z,97155.81
2023-11-29T08:13:17.317Z,97152.25
2023-11-29T08:14:50.706Z,97156.56
2023-11-29T08:16:22.779Z,97161.59
2023-11-29T08:17:54.380Z,97155.47
2023-11-29T08:19:26.423Z,97149.59
2023-11-29T08:20:59.221Z,97159.25
2023-11-29T08:22:30.881Z,97156.22
2023-11-29T08:24:02.964Z,97164.09
2023-11-29T08:25:34.640Z,97159.28
2023-11-29T08:27:06.315Z,97156.81
2023-11-29T08:28:37.872Z,97167.84
2023-11-29T08:30:09.831Z,97159.47
2023-11-29T08:31:41.432Z,97167.44
2023-11-29T08:33:14.207Z,97157.06
2023-11-29T08:34:47.059Z,97162.91
2023-11-29T08:36:18.596Z,97159.47
2023-11-29T08:37:51.392Z,97165.69
2023-11-29T08:39:22.952Z,97163.13
2023-11-29T08:40:54.539Z,97161.47
2023-11-29T08:42:26.105Z,97161.66
2023-11-29T08:43:57.695Z,97158.91
2023-11-29T08:45:29.287Z,97159.66
2023-11-29T08:47:00.927Z,97145.66
2023-11-29T08:48:32.922Z,97160.78
2023-11-29T08:50:06.736Z,97151.28
2023-11-29T08:51:38.322Z,97161.22
2023-11-29T08:53:09.905Z,97154.06
2023-11-29T08:54:41.536Z,97156.69
2023-11-29T08:56:17.738Z,97154.94
2023-11-29T08:57:51.397Z,97147.13
2023-11-29T08:59:24.685Z,97156.06
2023-11-29T09:00:56.555Z,97153.44
2023-11-29T09:02:31.229Z,97153.06
2023-11-29T09:04:02.992Z,97148.53
2023-11-29T09:05:34.635Z,97150.47
2023-11-29T09:07:07.395Z,97150.78
2023-11-29T09:08:39.025Z,97139.31
2023-11-29T09:10:11.162Z,97142.75
2023-11-29T09:11:42.831Z,97137.53
2023-11-29T09:13:14.452Z,97145.63
2023-11-29T09:14:46.304Z,97135.88
2023-11-29T09:16:19.173Z,97121.22
2023-11-29T09:17:51.652Z,97137.41
2023-11-29T09:19:23.824Z,97144.25
2023-11-29T09:20:55.368Z,97145.41
2023-11-29T09:22:27.600Z,97145.16
2023-11-29T09:23:59.242Z,97151.84
2023-11-29T09:25:30.903Z,97157.84
2023-11-29T09:27:02.921Z,97158.28
2023-11-29T10:08:07.895Z,97111.16
2023-11-29T10:09:39.963Z,97102.88
2023-11-29T10:11:13.229Z,97104.22
2023-11-29T10:12:46.335Z,97095.53
2023-11-29T10:14:18.291Z,97094.59
2023-11-29T10:15:51.399Z,97102.78
2023-11-29T10:17:23.438Z,97094.84
2023-11-29T10:18:55.426Z,97094.16
2023-11-29T10:20:27.314Z,97093.47
2023-11-29T10:22:01.349Z,97097.84
2023-11-29T10:23:33.561Z,97104.34
2023-11-29T10:25:20.993Z,97097.69
2023-11-29T10:26:53.481Z,97105.13
2023-11-29T10:28:25.131Z,97103.19
2023-11-29T10:29:56.738Z,97100.56
2023-11-29T10:31:28.860Z,97106.09
2023-11-29T10:33:03.921Z,97099.22
2023-11-29T10:34:37.401Z,97099.59
2023-11-29T10:36:10.406Z,97100.13
2023-11-29T10:37:45.838Z,97094.94
2023-11-29T10:39:22.310Z,97094.09
2023-11-29T10:40:57.087Z,97095.13
2023-11-29T10:42:29.095Z,97088.03
2023-11-29T10:44:02.590Z,97085.63
2023-11-29T10:45:37.396Z,97089.28
2023-11-29T10:47:21.945Z,97087.09
2023-11-29T10:49:04.241Z,97084.91
2023-11-29T10:50:38.622Z,97087.09
2023-11-29T10:52:10.477Z,97084.81
2023-11-29T10:53:42.616Z,97081.75
2023-11-29T10:55:15.500Z,97085.97
2023-11-29T10:56:49.763Z,97074.19
2023-11-29T10:58:36.487Z,97079.22
2023-11-29T11:00:16.569Z,97075.69
2023-11-29T11:01:48.958Z,97070.50
2023-11-29T11:03:44.096Z,97069.91
2023-11-29T11:05:23.880Z,97068.44
2023-11-29T11:06:58.417Z,97064.91
2023-11-29T11:08:39.057Z,97066.66
2023-11-29T11:10:23.228Z,97062.88
2023-11-29T11:11:54.996Z,97059.44
2023-11-29T11:13:38.254Z,97065.41
2023-11-29T11:15:20.805Z,97057.72
2023-11-29T11:16:58.227Z,97047.84
2023-11-29T11:18:31.151Z,97048.34
2023-11-29T11:20:10.005Z,97044.03
2023-11-29T11:21:42.877Z,97039.81
2023-11-29T11:23:32.878Z,97038.13
2023-11-29T11:25:12.908Z,97038.38
2023-11-29T11:27:08.101Z,97036.38
2023-11-29T11:28:41.126Z,97037.94
2023-11-29T11:30:16.107Z,97036.50
2023-11-29T11:31:47.808Z,97032.16
2023-11-29T11:33:19.515Z,97031.88
2023-11-29T11:34:51.155Z,97033.06
2023-11-29T11:36:26.433Z,97024.63
2023-11-29T11:38:00.281Z,97026.34
2023-11-29T11:39:31.914Z,97025.22
2023-11-29T11:41:03.727Z,97029.16
2023-11-29T11:42:35.750Z,97022.59
2023-11-29T11:44:08.185Z,97023.31
2023-11-29T11:45:40.554Z,97023.22
2023-11-29T11:47:12.215Z,97017.47
2023-11-29T11:48:46.241Z,97006.84
2023-11-29T11:50:18.984Z,97015.19
2023-11-29T11:51:52.571Z,97006.88
2023-11-29T11:53:24.402Z,97007.44
2023-11-29T11:54:56.120Z,97001.28
2023-11-29T11:56:27.947Z,97011.81
2023-11-29T11:58:00.985Z,97007.56
2023-11-29T11:59:32.843Z,97013.69
2023-11-29T12:01:04.565Z,96999.81
2023-11-29T12:02:36.721Z,96995.81
2023-11-29T12:04:08.405Z,96994.38
2023-11-29T12:05:41.048Z,96993.38
2023-11-29T12:07:13.061Z,96986.38
2023-11-29T12:08:45.444Z,96983.19
2023-11-29T12:10:17.319Z,96987.97
2023-11-29T12:11:48.991Z,96984.22
2023-11-29T12:13:22.364Z,96983.88
2023-11-29T12:14:55.602Z,96994.59
2023-11-29T12:16:27.714Z,96981.25
2023-11-29T12:17:59.597Z,96994.56
2023-11-29T12:19:31.421Z,96994.28
2023-11-29T12:21:04.148Z,96989.16
2023-11-29T12:22:42.038Z,96990.47
2023-11-29T12:24:13.844Z,96991.22
2023-11-29T12:25:55.199Z,96982.75
2023-11-29T12:27:28.438Z,96976.97
2023-11-29T12:29:00.818Z,96976.91
2023-11-29T12:30:32.476Z,96977.69
2023-11-29T12:32:08.021Z,96972.94
2023-11-29T12:33:39.983Z,96970.06
2023-11-29T12:35:17.201Z,96975.31
2023-11-29T12:36:49.263Z,96972.47
2023-11-29T12:38:21.004Z,96967.31
2023-11-29T12:39:53.636Z,96963.50
2023-11-29T12:41:25.241Z,96960.91
2023-11-29T12:42:56.806Z,96948.91
2023-11-29T12:44:28.507Z,96948.59
2023-11-29T12:46:00.405Z,96951.91
2023-11-29T12:47:32.685Z,96954.81
2023-11-29T12:49:04.420Z,96947.13
2023-11-29T12:50:36.919Z,96940.06
2023-11-29T12:52:08.788Z,96940.19
2023-11-29T12:53:40.974Z,96937.03
2023-11-29T12:55:13.090Z,96929.25
2023-11-29T12:56:45.679Z,96920.38
2023-11-29T12:58:17.815Z,96928.97
2023-11-29T12:59:49.719Z,96928.66
2023-11-29T13:01:23.799Z,96928.16
2023-11-29T13:02:55.478Z,96933.94
2023-11-29T13:04:27.248Z,96929.25
2023-11-29T13:05:58.939Z,96929.13
2023-11-29T13:07:30.520Z,96924.63
2023-11-29T13:09:02.675Z,96924.97
2023-11-29T13:10:34.722Z,96922.72
2023-11-29T13:12:06.898Z,96922.72
2023-11-29T13:13:39.133Z,96921.91
2023-11-29T13:15:11.172Z,96918.88
2023-11-29T13:16:42.930Z,96922.63
2023-11-29T13:18:14.697Z,96913.78
2023-11-29T13:19:46.405Z,96916.06
2023-11-29T13:21:18.245Z,96911.34
2023-11-29T13:22:50.552Z,96904.41
2023-11-29T13:24:22.218Z,96907.53
2023-11-29T13:25:53.830Z,96913.19
2023-11-29T13:27:26.324Z,96909.31
2023-11-29T13:28:57.926Z,96904.16
2023-11-29T13:30:29.489Z,96896.38
2023-11-29T13:32:01.268Z,96898.50
2023-11-29T13:33:33.020Z,96899.47
2023-11-29T13:35:05.251Z,96893.34
2023-11-29T13:36:37.351Z,96901.31
2023-11-29T13:38:08.959Z,96897.47
2023-11-29T13:39:40.995Z,96902.31
2023-11-29T13:41:12.639Z,96886.13
2023-11-29T13:42:44.641Z,96894.59
2023-11-29T13:44:17.629Z,96893.47
2023-11-29T13:45:49.265Z,96899.47
2023-11-29T13:47:20.905Z,96896.53
2023-11-29T13:48:52.676Z,96892.16
2023-11-29T13:50:26.515Z,96894.78
2023-11-29T13:52:07.551Z,96893.16
2023-11-29T13:53:44.682Z,96889.94
2023-11-29T13:55:16.915Z,96894.31
2023-11-29T13:56:48.603Z,96891.25
2023-11-29T13:58:20.248Z,96891.91
2023-11-29T13:59:51.988Z,96894.16
2023-11-29T14:01:23.629Z,96896.59
2023-11-29T14:02:55.400Z,96899.53
2023-11-29T14:04:27.923Z,96893.38
2023-11-29T14:06:00.173Z,96894.16
2023-11-29T14:07:31.991Z,96892.72
2023-11-29T14:09:04.564Z,96895.97
2023-11-29T14:10:36.158Z,96899.03
2023-11-29T14:12:08.158Z,96899.69
2023-11-29T14:13:39.828Z,96901.66
2023-11-29T14:15:12.549Z,96907.00
2023-11-29T14:16:44.281Z,96901.50
2023-11-29T14:18:15.968Z,96900.81
2023-11-29T14:19:47.900Z,96904.69
2023-11-29T14:21:19.488Z,96902.47
2023-11-29T14:22:51.298Z,96908.66
2023-11-29T14:24:23.000Z,96897.44
2023-11-29T14:25:54.649Z,96911.25
2023-11-29T14:27:26.894Z,96910.41
2023-11-29T14:28:58.572Z,96903.53
2023-11-29T14:30:30.201Z,96906.31
2023-11-29T14:32:01.905Z,96901.78
2023-11-29T14:33:37.172Z,96907.13
2023-11-29T14:35:09.364Z,96912.66
2023-11-29T14:36:48.632Z,96901.28
2023-11-29T14:38:20.233Z,96902.44
2023-11-29T14:39:51.864Z,96900.13
2023-11-29T14:41:28.371Z,96902.88
2023-11-29T14:43:01.352Z,96911.81
2023-11-29T14:44:33.367Z,96901.06
2023-11-29T14:46:05.243Z,96905.28
2023-11-29T14:47:36.977Z,96910.00
2023-11-29T14:49:16.724Z,96909.34
2023-11-29T14:50:55.226Z,96908.66
2023-11-29T14:52:27.736Z,96908.84
2023-11-29T14:54:01.844Z,96903.78
2023-11-29T14:55:33.813Z,96902.78
2023-11-29T14:57:05.718Z,96906.19
2023-11-29T14:58:37.580Z,96901.66
2023-11-29T15:00:11.121Z,96905.03
2023-11-29T15:01:43.047Z,96908.59
2023-11-29T15:03:14.848Z,96905.78
2023-11-29T15:04:47.222Z,96909.34
2023-11-29T15:06:22.303Z,96919.88
2023-11-29T15:07:53.980Z,96910.13
2023-11-29T15:09:25.856Z,96903.78
2023-11-29T15:11:00.589Z,96918.88
2023-11-29T15:12:32.441Z,96918.19
2023-11-29T15:14:04.067Z,96913.81
2023-11-29T15:15:35.813Z,96909.25
2023-11-29T15:17:07.600Z,96914.28
2023-11-29T15:18:40.227Z,96919.13
2023-11-29T15:20:12.279Z,96912.47
2023-11-29T15:21:46.760Z,96911.34
2023-11-29T15:23:18.482Z,96911.78
2023-11-29T15:24:50.568Z,96911.66
2023-11-29T15:26:22.201Z,96913.50
2023-11-29T15:27:53.802Z,96916.28
2023-11-29T15:29:25.565Z,96916.28
2023-11-29T15:30:57.509Z,96918.22
2023-11-29T15:32:29.184Z,96916.88
2023-11-29T15:34:00.910Z,96916.22
2023-11-29T15:35:34.820Z,96914.59
2023-11-29T15:37:06.875Z,96914.75
2023-11-29T15:38:41.085Z,96909.09
2023-11-29T15:40:14.111Z,96912.66
2023-11-29T15:41:46.601Z,96924.63
2023-11-29T15:43:18.236Z,96915.25
2023-11-29T15:44:52.516Z,96912.97
2023-11-29T15:46:24.389Z,96918.44
2023-11-29T15:47:58.253Z,96917.63
2023-11-29T15:49:30.298Z,96914.25
2023-11-29T15:51:02.279Z,96912.59
2023-11-29T15:52:33.994Z,96914.53
2023-11-29T15:54:05.726Z,96920.53
2023-11-29T15:55:38.941Z,96923.25
2023-11-29T15:57:10.639Z,96925.41
2023-11-29T15:58:44.601Z,96921.19
2023-11-29T16:00:16.892Z,96918.75
2023-11-29T16:01:48.597Z,96920.38
2023-11-29T16:03:20.380Z,96919.03
2023-11-29T16:04:52.412Z,96918.22
2023-11-29T16:06:24.130Z,96916.09
2023-11-29T16:07:55.806Z,96919.50
2023-11-29T16:09:27.534Z,96911.53
2023-11-29T16:10:59.567Z,96924.00
2023-11-29T16:12:31.158Z,96920.13
2023-11-29T16:14:02.738Z,96916.19
2023-11-29T16:15:34.644Z,96923.31
2023-11-29T16:17:06.295Z,96919.22
2023-11-29T16:18:38.150Z,96922.63
2023-11-29T16:20:10.440Z,96922.50
2023-11-29T16:21:42.096Z,96917.31
2023-11-29T16:23:13.732Z,96924.41
2023-11-29T16:24:45.333Z,96925.59
2023-11-29T16:26:17.047Z,96920.72
2023-11-29T16:27:48.707Z,96921.31
2023-11-29T16:29:20.801Z,96924.72
2023-11-29T16:30:53.716Z,96918.56
2023-11-29T16:32:25.395Z,96933.31
2023-11-29T16:33:57.095Z,96923.81
2023-11-29T16:35:28.930Z,96923.31
2023-11-29T16:37:00.534Z,96936.78
2023-11-29T16:38:32.184Z,96925.47
2023-11-29T16:40:04.357Z,96929.81
2023-11-29T16:41:36.112Z,96925.91
2023-11-29T16:43:10.294Z,96922.91
2023-11-29T16:44:42.026Z,96930.00
2023-11-29T16:46:13.791Z,96928.56
2023-11-29T16:47:45.727Z,96920.94
2023-11-29T16:49:17.755Z,96923.00
2023-11-29T16:50:49.605Z,96927.16
2023-11-29T16:52:21.248Z,96928.25
2023-11-29T16:53:52.882Z,96933.88
2023-11-29T16:55:24.658Z,96930.75
2023-11-29T16:56:56.425Z,96935.44
2023-11-29T16:58:28.722Z,96930.53
2023-11-29T17:00:00.685Z,96927.97
2023-11-29T17:01:32.442Z,96924.41
2023-11-29T17:03:06.261Z,96927.13
2023-11-29T17:04:38.510Z,96920.63
2023-11-29T17:06:10.572Z,96926.28
2023-11-29T17:07:42.268Z,96924.91
2023-11-29T17:09:13.941Z,96917.50
2023-11-29T17:10:45.739Z,96923.16
2023-11-29T17:12:17.522Z,96921.63
2023-11-29T17:13:49.412Z,96915.38
2023-11-29T17:15:22.018Z,96919.72
2023-11-29T17:16:53.722Z,96912.28
2023-11-29T17:18:25.516Z,96915.41
2023-11-29T17:19:58.235Z,96912.69
2023-11-29T17:21:30.080Z,96914.75
2023-11-29T17:23:02.552Z,96915.56
2023-11-29T17:24:34.579Z,96915.56
2023-11-29T17:26:06.623Z,96917.75
2023-11-29T17:27:38.181Z,96914.88
2023-11-29T17:29:09.767Z,96914.88
2023-11-29T17:30:42.056Z,96904.16
2023-11-29T17:32:13.690Z,96907.16
2023-11-29T17:33:45.362Z,96899.84
2023-11-29T17:35:17.139Z,96903.66
2023-11-29T17:36:49.539Z,96903.81
2023-11-29T17:38:21.291Z,96905.75
2023-11-29T17:39:53.181Z,96909.28
2023-11-29T17:41:25.131Z,96908.47
2023-11-29T17:42:56.825Z,96908.19
2023-11-29T17:44:28.583Z,96899.06
2023-11-29T17:46:00.302Z,96907.22
2023-11-29T17:47:32.987Z,96900.69
2023-11-29T17:49:04.752Z,96908.63
2023-11-29T17:50:39.514Z,96919.78
2023-11-29T17:52:12.613Z,96911.22
2023-11-29T17:53:44.474Z,96908.34
2023-11-29T17:55:16.156Z,96920.31
2023-11-29T17:56:47.830Z,96925.03
2023-11-29T17:58:19.852Z,96916.50
2023-11-29T18:01:23.557Z,96913.56
2023-11-29T18:02:55.322Z,96912.75
2023-11-29T18:04:27.351Z,96919.09
2023-11-29T18:05:58.997Z,96919.94
2023-11-29T18:07:30.634Z,96916.66
2023-11-29T18:09:03.573Z,96912.75
2023-11-29T18:10:53.047Z,96913.97
2023-11-29T18:12:24.703Z,96916.41
2023-11-29T18:13:59.813Z,96911.38
2023-11-29T18:15:31.441Z,96910.84
2023-11-29T18:17:03.185Z,96910.69
2023-11-29T18:18:34.921Z,96909.50
2023-11-29T18:20:07.424Z,96910.75
2023-11-29T18:21:39.123Z,96910.63
2023-11-29T18:23:11.262Z,96906.66
2023-11-29T18:24:43.657Z,96898.91
2023-11-29T18:26:15.304Z,96899.84
2023-11-29T18:27:47.131Z,96904.38
2023-11-29T18:29:18.817Z,96898.66
2023-11-29T18:30:50.649Z,96897.31
2023-11-29T18:32:22.331Z,96894.59
2023-11-29T18:33:54.314Z,96893.91
2023-11-29T18:35:26.004Z,96894.19
2023-11-29T18:36:58.040Z,96892.31
2023-11-29T18:38:29.905Z,96894.47
2023-11-29T18:40:02.209Z,96895.97
2023-11-29T18:41:33.822Z,96888.09
2023-11-29T18:43:05.533Z,96892.03
2023-11-29T18:44:38.881Z,96893.53
2023-11-29T18:46:10.660Z,96889.84
2023-11-29T18:47:43.242Z,96882.94
2023-11-29T18:49:15.284Z,96888.91